Latest Weather Observations for Coonawarra

IDS60801

Issued at 1:01 pm CST Saturday 4 July 2015 (issued every 30 minutes, with the page automatically refreshed every 10 minutes)

About weather observations | Map of weather stations | Latest weather observations for SA | Other Formats
Station Details ID: 026091 Name: COONAWARRA Lat: -37.29 Lon: 140.83 Height: 57.0 m
Data from the previous 72 hours. | See also: Recent months at Coonawarra
Date/Time
CST
Temp
°C
App
Temp
°C
Dew
Point
Rel
Hum
%
Delta-T
°C
Wind Press
QNH
hPa
Press
MSL
hPa
Rain
since 9 am
mm
Dir
 
Spd
km/h
Gust
km/h
Spd
kts
Gust
kts
04/01:00pm 11.4 8.2 7.0 74 2.1 N 13 19 7 10 1022.2 1022.3 0.0
04/12:30pm 10.9 6.8 6.4 74 2.1 N 17 22 9 12 1022.5 1022.6 0.0
04/12:00pm 11.1 6.8 6.9 75 2.0 NNW 19 24 10 13 1023.0 1023.1 0.0
04/11:30am 10.9 6.5 6.7 75 2.0 NNW 19 24 10 13 1023.4 1023.6 0.0
04/11:00am 10.1 6.0 6.0 76 1.9 NNW 17 22 9 12 1023.8 1023.9 0.0
04/10:30am 9.4 5.2 5.7 78 1.7 N 17 22 9 12 1023.9 1024.0 0.0
04/10:00am 8.8 4.6 5.7 81 1.4 N 17 24 9 13 1023.9 1024.0 0.0
04/09:30am 8.3 4.6 6.3 87 0.9 NNW 15 20 8 11 1023.9 1024.0 0.0
04/09:00am 7.9 3.8 6.1 88 0.8 N 17 22 9 12 1023.7 1023.8 0.0
04/08:30am 7.9 3.6 5.2 83 1.2 NNW 17 22 9 12 1023.7 1023.8 0.0
04/08:00am 7.6 3.2 4.9 83 1.2 NNW 17 20 9 11 1023.6 1023.7 0.0
04/07:30am 7.7 3.3 4.5 80 1.4 NNW 17 22 9 12 1023.4 1023.6 0.0
04/07:00am 7.9 3.4 4.2 77 1.6 NNW 17 22 9 12 1023.2 1023.4 0.0
04/06:30am 7.8 3.3 4.1 77 1.6 N 17 20 9 11 1023.1 1023.3 0.0
04/06:00am 7.8 3.2 3.8 76 1.7 NNW 17 20 9 11 1023.0 1023.1 0.0
04/05:30am 7.8 2.8 3.8 76 1.7 N 19 26 10 14 1022.8 1022.9 0.0
04/05:00am 7.9 3.4 4.2 77 1.6 N 17 22 9 12 1022.8 1022.9 0.0
04/04:30am 8.4 3.8 3.5 71 2.1 N 17 22 9 12 1022.8 1022.9 0.0
04/04:00am 8.2 4.3 3.5 72 2.0 N 13 20 7 11 1022.8 1022.9 0.0
04/03:30am 8.4 3.8 3.5 71 2.1 N 17 22 9 12 1023.0 1023.1 0.0
04/03:00am 8.6 3.9 3.2 69 2.3 N 17 22 9 12 1023.0 1023.1 0.0
04/02:30am 8.5 3.8 3.4 70 2.2 N 17 22 9 12 1023.2 1023.4 0.0
04/02:00am 8.5 3.8 3.4 70 2.2 N 17 20 9 11 1023.3 1023.5 0.0
04/01:30am 8.3 4.0 3.1 70 2.2 N 15 20 8 11 1023.6 1023.7 0.0
04/01:00am 8.3 3.5 2.8 68 2.3 N 17 22 9 12 1023.7 1023.8 0.0
04/12:30am 8.2 3.5 3.0 70 2.2 N 17 22 9 12 1023.9 1024.0 0.0
04/12:00am 8.0 3.7 3.3 72 2.0 N 15 20 8 11 1024.3 1024.4 0.0
 
Date/Time
CST
Temp
°C
App
Temp
°C
Dew
Point
Rel
Hum
%
Delta-T
°C
Wind Press
QNH
hPa
Press
MSL
hPa
Rain
since 9 am
mm
Dir
 
Spd
km/h
Gust
km/h
Spd
kts
Gust
kts
03/11:30pm 8.1 3.4 3.1 71 2.1 N 17 20 9 11 1024.6 1024.7 0.0
03/11:00pm 8.2 3.9 3.0 70 2.2 N 15 20 8 11 1024.7 1024.8 0.0
03/10:30pm 7.8 4.3 3.6 75 1.8 N 11 15 6 8 1025.0 1025.1 0.0
03/10:00pm 7.7 3.8 3.5 75 1.8 N 13 17 7 9 1025.2 1025.3 0.0
03/09:30pm 7.6 3.7 3.6 76 1.7 N 13 17 7 9 1025.3 1025.4 0.0
03/09:00pm 7.9 4.3 3.2 72 2.0 N 11 15 6 8 1025.5 1025.6 0.0
03/08:30pm 7.7 4.1 3.2 73 1.9 N 11 15 6 8 1025.7 1025.8 0.0
03/08:00pm 7.5 3.9 3.2 74 1.8 NNW 11 13 6 7 1025.7 1025.8 0.0
03/07:30pm 7.8 4.6 2.8 70 2.1 N 9 11 5 6 1025.7 1025.8 0.0
03/07:00pm 8.1 4.9 2.9 70 2.2 N 9 13 5 7 1025.7 1025.8 0.0
03/06:30pm 8.1 4.6 3.4 72 2.0 N 11 13 6 7 1025.7 1025.8 0.0
03/06:00pm 8.5 5.4 3.6 71 2.1 N 9 13 5 7 1025.6 1025.7 0.0
03/05:30pm 8.7 5.2 3.6 70 2.2 N 11 15 6 8 1025.6 1025.7 0.0
03/05:00pm 9.1 5.1 3.0 65 2.6 NNW 13 17 7 9 1025.8 1025.9 0.0
03/04:30pm 9.6 5.2 2.5 61 3.0 N 15 20 8 11 1025.8 1025.9 0.0
03/04:00pm 10.1 5.6 2.3 58 3.3 NNW 15 20 8 11 1026.2 1026.3 0.0
03/03:30pm 10.3 6.6 2.6 59 3.3 N 11 15 6 8 1026.1 1026.2 0.0
03/03:00pm 10.4 5.9 2.1 56 3.5 N 15 20 8 11 1026.3 1026.4 0.0
03/02:30pm 10.2 4.8 1.5 55 3.6 NNW 19 24 10 13 1026.5 1026.6 0.0
03/02:00pm 10.5 5.5 1.6 54 3.7 NNW 17 24 9 13 1026.5 1026.6 0.0
03/01:30pm 10.7 5.4 1.6 53 3.8 N 19 24 10 13 1026.7 1026.8 0.0
03/01:00pm 10.7 5.3 1.3 52 3.9 N 19 24 10 13 1026.9 1027.0 0.0
03/12:30pm 10.4 4.9 1.8 55 3.6 N 20 26 11 14 1027.4 1027.5 0.0
03/12:00pm 9.9 4.8 2.9 62 3.0 N 19 26 10 14 1027.8 1027.9 0.0
03/11:30am 9.8 5.1 3.0 62 2.9 N 17 24 9 13 1028.5 1028.6 0.0
03/11:00am 8.9 3.8 3.0 66 2.5 N 19 26 10 14 1028.9 1029.0 0.0
03/10:30am 7.6 2.9 3.3 74 1.8 N 17 24 9 13 1029.3 1029.4 0.0
03/10:00am 6.8 3.0 3.7 80 1.3 N 13 15 7 8 1029.6 1029.7 0.0
03/09:30am 5.9 2.8 3.5 84 1.0 N 9 13 5 7 1029.6 1029.7 0.0
03/09:00am 4.4 1.2 2.9 90 0.6 N 9 11 5 6 1029.5 1029.6 0.2
03/08:30am 3.1 -0.3 2.1 93 0.4 NNE 9 13 5 7 1029.5 1029.6 0.2
03/08:00am 2.1 -1.0 1.6 96 0.2 N 7 9 4 5 1029.6 1029.7 0.0
03/07:30am 1.2 -1.9 0.4 94 0.3 N 6 9 3 5 1029.6 1029.7 0.0
03/07:00am 0.7 -2.4 0.1 96 0.2 N 6 7 3 4 1029.4 1029.5 0.0
03/06:30am 0.2 - - - - N 7 9 4 5 1029.5 1029.6 0.0
03/06:00am -0.4 - - - - N 2 7 1 4 1029.3 1029.4 0.0
03/05:30am -0.5 - - - - NE 11 13 6 7 1029.1 1029.2 0.0
03/05:00am -0.4 - - - - ENE 7 11 4 6 1029.0 1029.1 0.0
03/04:30am -0.5 - - - - ENE 11 11 6 6 1029.0 1029.1 0.0
03/04:00am -0.6 - - - - ENE 9 9 5 5 1029.3 1029.4 0.0
03/03:30am -0.7 - - - - ENE 7 9 4 5 1029.4 1029.5 0.0
03/03:00am -0.7 - - - - N 7 7 4 4 1029.6 1029.7 0.0
03/02:30am -0.4 - - - - N 7 9 4 5 1029.7 1029.8 0.0
03/02:00am -0.2 - - - - N 9 9 5 5 1029.9 1030.0 0.0
03/01:30am 0.3 - - - - NNE 2 9 1 5 1029.9 1030.0 0.0
03/01:00am 0.8 -1.2 0.0 94 0.3 CALM 0 0 0 0 1030.0 1030.1 0.0
03/12:30am 0.9 -2.2 0.1 94 0.3 SSW 6 7 3 4 1030.2 1030.3 0.0
03/12:00am 1.5 -1.5 0.7 94 0.3 SW 6 9 3 5 1030.5 1030.6 0.0
 
Date/Time
CST
Temp
°C
App
Temp
°C
Dew
Point
Rel
Hum
%
Delta-T
°C
Wind Press
QNH
hPa
Press
MSL
hPa
Rain
since 9 am
mm
Dir
 
Spd
km/h
Gust
km/h
Spd
kts
Gust
kts
02/11:30pm 2.2 -1.3 1.1 92 0.4 WSW 9 20 5 11 1030.6 1030.7 0.0
02/11:00pm 1.2 -0.7 0.4 94 0.3 CALM 0 0 0 0 1030.4 1030.5 0.0
02/10:30pm 1.7 -0.2 0.6 92 0.4 CALM 0 0 0 0 1030.2 1030.3 0.0
02/10:00pm 2.8 0.7 1.5 91 0.5 SW 2 9 1 5 1030.4 1030.5 0.0
02/09:30pm 3.9 1.1 2.1 88 0.7 ESE 6 11 3 6 1030.5 1030.6 0.0
02/09:00pm 5.1 2.4 2.9 86 0.9 SW 6 7 3 4 1030.6 1030.7 0.0
02/08:30pm 5.9 2.7 3.2 83 1.1 SSW 9 11 5 6 1030.6 1030.7 0.0
02/08:00pm 6.3 4.3 4.2 86 0.9 WSW 4 6 2 3 1030.5 1030.6 0.0
02/07:30pm 6.6 4.1 4.0 83 1.1 WSW 6 7 3 4 1030.5 1030.6 0.0
02/07:00pm 7.1 4.6 3.8 79 1.4 SW 6 7 3 4 1030.2 1030.3 0.0
02/06:30pm 7.1 4.5 3.3 77 1.6 S 6 9 3 5 1029.7 1029.8 0.0
02/06:00pm 8.0 4.9 3.5 73 1.9 SSE 9 11 5 6 1029.6 1029.7 0.0
02/05:30pm 7.8 4.6 3.0 71 2.0 SSE 9 11 5 6 1029.5 1029.6 0.0
02/05:00pm 8.3 5.5 3.4 71 2.1 SW 7 9 4 5 1029.2 1029.3 0.0
02/04:30pm 9.7 6.6 3.5 65 2.7 SW 9 11 5 6 1028.9 1029.0 0.0
02/04:00pm 10.0 6.5 3.3 63 2.9 SW 11 15 6 8 1028.7 1028.8 0.0
02/03:30pm 10.8 5.9 1.7 53 3.8 SSW 17 24 9 13 1028.5 1028.6 0.0
02/03:00pm 11.4 5.6 0.1 45 4.6 SSW 20 26 11 14 1028.4 1028.5 0.0
02/02:30pm 11.2 5.8 2.3 54 3.8 SSW 20 28 11 15 1028.2 1028.3 0.0
02/02:00pm 11.8 5.5 1.6 49 4.3 S 24 30 13 16 1027.9 1028.0 0.0
02/01:30pm 12.2 6.9 3.1 53 4.0 SW 20 43 11 23 1027.6 1027.7 0.0
02/01:00pm 11.7 6.5 2.4 53 4.0 SW 19 24 10 13 1027.6 1027.7 0.0
02/12:30pm 11.2 4.8 3.4 58 3.4 SW 26 39 14 21 1027.7 1027.8 0.0
02/12:00pm 12.0 5.9 2.8 53 4.0 S 24 35 13 19 1027.5 1027.6 0.0
02/11:30am 12.5 6.6 3.8 55 3.9 SSW 24 33 13 18 1027.5 1027.6 0.0
02/11:00am 12.1 6.3 4.3 59 3.5 SSW 24 35 13 19 1027.6 1027.7 0.0
02/10:30am 11.5 6.2 4.9 64 3.0 SSW 22 32 12 17 1027.3 1027.4 0.0
02/10:00am 11.0 5.2 4.5 64 2.9 SSW 24 32 13 17 1027.1 1027.2 0.0
02/09:30am 10.6 4.8 4.6 66 2.7 SSW 24 33 13 18 1026.7 1026.8 0.0
02/09:00am 10.2 6.4 4.1 66 2.7 SW 13 20 7 11 1026.4 1026.5 2.6
02/08:30am 9.3 5.7 4.8 73 2.0 SW 13 19 7 10 1026.2 1026.3 2.6
02/08:00am 7.8 4.1 4.3 78 1.5 WSW 13 17 7 9 1026.0 1026.1 2.6
02/07:30am 7.0 4.1 4.5 84 1.1 W 9 11 5 6 1025.5 1025.6 2.6
02/07:00am 7.1 4.2 4.8 85 1.0 W 9 11 5 6 1025.3 1025.4 2.6
02/06:30am 7.3 4.0 4.8 84 1.1 WNW 11 13 6 7 1024.8 1024.9 2.6
02/06:00am 7.9 4.8 5.4 84 1.1 W 11 15 6 8 1024.4 1024.5 2.6
02/05:30am 8.5 5.5 5.9 84 1.2 WSW 11 13 6 7 1023.9 1024.0 2.6
02/05:00am 8.0 5.0 5.8 86 1.0 WSW 11 15 6 8 1023.4 1023.6 2.6
02/04:30am 9.1 5.9 6.7 85 1.1 SW 13 17 7 9 1023.3 1023.5 2.6
02/04:00am 9.1 6.0 7.4 89 0.8 SW 13 17 7 9 1023.0 1023.1 2.6
02/03:30am 10.2 7.1 8.8 91 0.7 SW 15 20 8 11 1022.8 1022.9 2.6
02/03:00am 10.6 8.1 9.6 93 0.5 WSW 13 15 7 8 1022.8 1022.9 2.6
02/02:30am 10.8 8.3 9.8 93 0.5 W 13 17 7 9 1022.8 1022.9 2.6
02/02:00am 10.8 9.1 9.8 93 0.5 WNW 9 13 5 7 1022.4 1022.5 2.6
02/01:30am 11.0 9.0 10.0 93 0.5 W 11 15 6 8 1022.5 1022.6 2.6
02/01:00am 11.1 9.1 10.1 94 0.5 WNW 11 15 6 8 1022.4 1022.5 2.6
02/12:30am 11.6 8.6 10.6 94 0.5 W 17 24 9 13 1022.7 1022.8 2.4
02/12:00am 11.7 7.5 9.7 87 1.0 NW 22 30 12 16 1022.2 1022.3 1.2
 
Date/Time
CST
Temp
°C
App
Temp
°C
Dew
Point
Rel
Hum
%
Delta-T
°C
Wind Press
QNH
hPa
Press
MSL
hPa
Rain
since 9 am
mm
Dir
 
Spd
km/h
Gust
km/h
Spd
kts
Gust
kts
01/11:30pm 11.7 7.4 9.5 86 1.1 NW 22 33 12 18 1022.4 1022.5 1.2
01/11:00pm 11.5 7.2 9.5 87 1.0 NW 22 33 12 18 1022.8 1022.9 1.2
01/10:30pm 11.3 7.4 9.5 89 0.9 NNW 20 26 11 14 1022.9 1023.0 1.2
01/10:00pm 11.2 6.9 9.4 89 0.9 NW 22 28 12 15 1023.3 1023.5 1.2
01/09:30pm 11.1 6.8 9.3 89 0.9 NW 22 30 12 16 1023.8 1023.9 1.2
01/09:00pm 10.8 6.9 9.4 91 0.7 NNW 20 26 11 14 1023.9 1024.0 1.2
01/08:30pm 10.9 6.5 9.1 89 0.9 NW 22 30 12 16 1023.8 1023.9 0.8
01/08:00pm 10.9 6.5 9.1 89 0.9 NW 22 32 12 17 1023.9 1024.0 0.8
01/07:30pm 10.8 6.4 9.0 89 0.9 NW 22 32 12 17 1023.9 1024.0 0.8
01/07:00pm 10.8 6.7 8.8 87 1.0 NW 20 28 11 15 1023.9 1024.0 0.8
01/06:30pm 10.8 6.9 8.8 87 1.0 NW 19 26 10 14 1023.9 1024.0 0.8
01/06:00pm 10.9 6.8 8.7 86 1.1 NW 20 26 11 14 1023.9 1024.0 0.8
01/05:30pm 11.5 7.1 9.1 85 1.2 NW 22 32 12 17 1023.9 1024.0 0.8
01/05:00pm 11.5 6.9 9.5 87 1.0 NW 24 35 13 19 1023.9 1024.0 0.6
01/04:30pm 11.6 7.3 9.4 86 1.1 NW 22 30 12 16 1024.0 1024.1 0.6
01/04:00pm 11.3 7.7 9.7 90 0.8 NW 19 28 10 15 1024.0 1024.1 0.6
01/03:30pm 11.4 5.7 9.8 90 0.8 NW 30 41 16 22 1024.2 1024.3 0.4
01/03:00pm 12.6 7.6 9.4 81 1.6 NW 26 39 14 21 1024.1 1024.2 0.4
01/02:30pm 12.5 7.7 10.2 86 1.2 NW 26 39 14 21 1024.3 1024.4 0.4
01/02:00pm 12.1 7.6 9.9 86 1.1 NW 24 33 13 18 1024.8 1024.9 0.4
01/01:30pm 11.9 7.2 10.5 91 0.7 NW 26 39 14 21 1025.0 1025.1 0.4

Other Formats:

Comma delimited format used in spreadsheet applications
http://www.bom.gov.au/fwo/IDS60801/IDS60801.94817.axf

JavaScript Object Notation format (JSON) in row-major order
http://www.bom.gov.au/fwo/IDS60801/IDS60801.94817.json